Anawalt, WV (24808)

6:06 AM EDT on April 23, 2017 (GMT -0400)
Wittens Mill | | Change Station
Active Advisory: Flash Flood Watch Active Notice: Flash Flood Watch

Elev 2589 ft 37.18 °N, 81.47 °W | Updated 19 seconds ago

Overcast
Overcast
46.9 °F
Feels Like 42 °F
N
10.0
Wind Variable Wind from East

Today
High -- | Low -- °F
--% Chance of Precip.
Yesterday
High -- | Low -- °F
Precip. -- in
Pressure 29.96 in
Visibility 9.0 miles
Clouds Overcast 600 ft
Windchill 42 °F
Dew Point 44 °F
Humidity 91%
Rainfall 0.00 in
Snow Depth Not available.
6:40 AM 8:08 PM
Waning Crescent, 13% visible
METAR KBLF 230952Z AUTO 10008KT 9SM OVC006 07/06 A2998 RMK AO2 CIG 003V010 SLP145 T00670061 TSNO
Pressure 29.96 in
Visibility 9.0 miles
Clouds Overcast 600 ft
Windchill 42 °F
Dew Point 44 °F
Humidity 91%
Rainfall 0.00 in
Snow Depth Not available.
6:40 AM 8:08 PM
Waning Crescent, 13% visible
METAR KBLF 230952Z AUTO 10008KT 9SM OVC006 07/06 A2998 RMK AO2 CIG 003V010 SLP145 T00670061 TSNO

Get Your Daily Forecast Email!

Thanks for signing up!

Be on the lookout for a verification email in your inbox.

You'll start receiving severe weather alerts in your inbox..

×

10-Day Weather Forecast

Almanac

Astronomy

Apr. 23, 2017 Rise Set
Actual Time
Civil Twilight
Nautical Twilight
Astronomical Twilight
Moon
Length of Visible Light
Length of Day
Tomorrow will be .
, % of the Moon is Illuminated

Today's Extremes

State Highs State Lows

Community

WunderPhotos

WunderBlog® & News

Nearby

Air Quality

  Air Quality AQ Index Pollutant
Not available.

Snow Depth

Station Depth Elevation

Earthquake Activity

City Distance Mag. Time & Date
Minimum magnitude displayed is 2.5.

Coastal Water Temperatures

Place Temperature

Stations

Nearby Weather Stations

Station Location Temp. Windchill Dew Point Humidity Wind Precip. Elev Updated Type
                   

Watches & Warnings

Flash Flood Watch
Issued: 5:41 AM EDT Apr. 23, 2017 – National Weather Service

... Flash Flood Watch remains in effect through this evening...

The Flash Flood Watch continues for

* portions of southwest Virginia and southern West Virginia,
including the following areas, in southwest Virginia, Buchanan
and Dickenson. In southern West Virginia, McDowell and
Wyoming.

* Through this evening

* another wave of heavy rainfall is expected today. This could
lead to flash flooding, particularly along flood prone creeks
and streams, and adjacent low lying areas.


Precautionary/preparedness actions...

A Flash Flood Watch means that conditions may develop that lead
to flash flooding. Flash flooding is a very dangerous situation.

You should monitor later forecasts and be prepared to take action
should warnings be issued.